sensor_id;sensor_type;location;lat;lon;timestamp;pressure;altitude;pressure_sealevel;temperature;humidity
51287;BME280;37364;46.974;18.916;2023-03-05T00:01:11;150434.03;;;0.32;100.00
51287;BME280;37364;46.974;18.916;2023-03-05T00:03:42;150413.47;;;0.24;100.00
51287;BME280;37364;46.974;18.916;2023-03-05T00:06:13;150419.91;;;0.26;100.00
51287;BME280;37364;46.974;18.916;2023-03-05T00:08:43;150430.16;;;0.30;100.00
51287;BME280;37364;46.974;18.916;2023-03-05T00:11:13;150423.75;;;0.28;100.00
51287;BME280;37364;46.974;18.916;2023-03-05T00:13:46;150417.31;;;0.25;100.00
51287;BME280;37364;46.974;18.916;2023-03-05T00:16:17;150430.16;;;0.30;100.00
51287;BME280;37364;46.974;18.916;2023-03-05T00:18:47;150432.72;;;0.31;100.00
51287;BME280;37364;46.974;18.916;2023-03-05T00:21:20;150430.16;;;0.30;100.00
51287;BME280;37364;46.974;18.916;2023-03-05T00:23:51;150427.56;;;0.29;100.00
51287;BME280;37364;46.974;18.916;2023-03-05T00:26:23;150432.72;;;0.31;100.00
51287;BME280;37364;46.974;18.916;2023-03-05T00:28:57;150416.03;;;0.25;100.00
51287;BME280;37364;46.974;18.916;2023-03-05T00:31:29;150440.44;;;0.34;100.00
51287;BME280;37364;46.974;18.916;2023-03-05T00:34:01;150448.16;;;0.37;100.00
51287;BME280;37364;46.974;18.916;2023-03-05T00:36:32;150440.44;;;0.34;100.00
51287;BME280;37364;46.974;18.916;2023-03-05T00:39:03;150451.97;;;0.39;100.00
51287;BME280;37364;46.974;18.916;2023-03-05T00:41:33;150440.44;;;0.34;100.00
51287;BME280;37364;46.974;18.916;2023-03-05T00:44:06;150434.03;;;0.32;100.00
51287;BME280;37364;46.974;18.916;2023-03-05T00:46:37;150414.75;;;0.24;100.00
51287;BME280;37364;46.974;18.916;2023-03-05T00:49:08;150414.75;;;0.24;100.00
51287;BME280;37364;46.974;18.916;2023-03-05T00:51:38;150403.16;;;0.19;100.00
51287;BME280;37364;46.974;18.916;2023-03-05T00:54:08;150399.34;;;0.18;100.00
51287;BME280;37364;46.974;18.916;2023-03-05T00:56:38;150395.50;;;0.16;100.00
51287;BME280;37364;46.974;18.916;2023-03-05T00:59:13;150403.16;;;0.19;100.00
51287;BME280;37364;46.974;18.916;2023-03-05T01:01:46;150386.50;;;0.13;100.00
51287;BME280;37364;46.974;18.916;2023-03-05T01:04:17;150383.94;;;0.12;100.00
51287;BME280;37364;46.974;18.916;2023-03-05T01:06:47;150353.09;;;-0.01;100.00
51287;BME280;37364;46.974;18.916;2023-03-05T01:09:17;150335.13;;;-0.08;100.00
51287;BME280;37364;46.974;18.916;2023-03-05T01:11:48;150336.41;;;-0.07;100.00
51287;BME280;37364;46.974;18.916;2023-03-05T01:14:23;150322.28;;;-0.13;100.00
51287;BME280;37364;46.974;18.916;2023-03-05T01:16:55;150301.75;;;-0.21;100.00
51287;BME280;37364;46.974;18.916;2023-03-05T01:19:26;150283.75;;;-0.28;100.00
51287;BME280;37364;46.974;18.916;2023-03-05T01:21:58;150276.06;;;-0.31;100.00
51287;BME280;37364;46.974;18.916;2023-03-05T01:24:29;150317.13;;;-0.15;100.00
51287;BME280;37364;46.974;18.916;2023-03-05T01:27:01;150342.81;;;-0.05;100.00
51287;BME280;37364;46.974;18.916;2023-03-05T01:29:35;150319.69;;;-0.14;100.00
51287;BME280;37364;46.974;18.916;2023-03-05T01:32:11;150273.47;;;-0.32;100.00
51287;BME280;37364;46.974;18.916;2023-03-05T01:34:43;150286.34;;;-0.27;100.00
51287;BME280;37364;46.974;18.916;2023-03-05T01:37:14;150283.75;;;-0.28;100.00
51287;BME280;37364;46.974;18.916;2023-03-05T01:39:45;150313.28;;;-0.16;100.00
51287;BME280;37364;46.974;18.916;2023-03-05T01:42:16;150336.41;;;-0.07;100.00
51287;BME280;37364;46.974;18.916;2023-03-05T01:45:04;150308.13;;;-0.18;100.00
51287;BME280;37364;46.974;18.916;2023-03-05T01:47:36;150310.72;;;-0.17;100.00
51287;BME280;37364;46.974;18.916;2023-03-05T01:50:09;150295.28;;;-0.24;100.00
51287;BME280;37364;46.974;18.916;2023-03-05T01:52:43;150274.75;;;-0.32;100.00
51287;BME280;37364;46.974;18.916;2023-03-05T01:55:18;150306.88;;;-0.19;100.00
51287;BME280;37364;46.974;18.916;2023-03-05T01:57:54;150306.88;;;-0.19;100.00
51287;BME280;37364;46.974;18.916;2023-03-05T02:00:34;150318.41;;;-0.14;100.00
51287;BME280;37364;46.974;18.916;2023-03-05T02:03:09;150315.88;;;-0.15;100.00
51287;BME280;37364;46.974;18.916;2023-03-05T02:05:42;150314.56;;;-0.16;100.00
51287;BME280;37364;46.974;18.916;2023-03-05T02:08:18;150285.00;;;-0.28;100.00
51287;BME280;37364;46.974;18.916;2023-03-05T02:10:52;150305.59;;;-0.19;100.00
51287;BME280;37364;46.974;18.916;2023-03-05T02:13:30;150308.13;;;-0.18;100.00
51287;BME280;37364;46.974;18.916;2023-03-05T02:16:04;150286.34;;;-0.27;100.00
51287;BME280;37364;46.974;18.916;2023-03-05T02:18:35;150287.59;;;-0.27;100.00
51287;BME280;37364;46.974;18.916;2023-03-05T02:21:08;150274.75;;;-0.32;100.00
51287;BME280;37364;46.974;18.916;2023-03-05T02:23:40;150283.75;;;-0.28;100.00
51287;BME280;37364;46.974;18.916;2023-03-05T02:26:10;150337.69;;;-0.07;100.00
51287;BME280;37364;46.974;18.916;2023-03-05T02:28:43;150344.09;;;-0.04;100.00
51287;BME280;37364;46.974;18.916;2023-03-05T02:31:20;150367.22;;;0.05;100.00
51287;BME280;37364;46.974;18.916;2023-03-05T02:33:52;150385.22;;;0.12;100.00
51287;BME280;37364;46.974;18.916;2023-03-05T02:36:26;150405.75;;;0.21;100.00
51287;BME280;37364;46.974;18.916;2023-03-05T02:38:58;150405.75;;;0.21;100.00
51287;BME280;37364;46.974;18.916;2023-03-05T02:41:28;150413.47;;;0.24;100.00
51287;BME280;37364;46.974;18.916;2023-03-05T02:43:59;150382.63;;;0.11;100.00
51287;BME280;37364;46.974;18.916;2023-03-05T02:46:29;150404.47;;;0.20;100.00
51287;BME280;37364;46.974;18.916;2023-03-05T02:48:59;150401.91;;;0.19;100.00
51287;BME280;37364;46.974;18.916;2023-03-05T02:51:32;150414.75;;;0.24;100.00
51287;BME280;37364;46.974;18.916;2023-03-05T02:54:03;150418.63;;;0.26;100.00
51287;BME280;37364;46.974;18.916;2023-03-05T02:56:34;150419.91;;;0.26;100.00
51287;BME280;37364;46.974;18.916;2023-03-05T02:59:05;150443.03;;;0.35;100.00
51287;BME280;37364;46.974;18.916;2023-03-05T03:01:36;150459.72;;;0.42;100.00
51287;BME280;37364;46.974;18.916;2023-03-05T03:04:06;150441.72;;;0.35;100.00
51287;BME280;37364;46.974;18.916;2023-03-05T03:06:39;150441.72;;;0.35;100.00
51287;BME280;37364;46.974;18.916;2023-03-05T03:09:09;150446.84;;;0.37;100.00
51287;BME280;37364;46.974;18.916;2023-03-05T03:11:39;150423.75;;;0.28;100.00
51287;BME280;37364;46.974;18.916;2023-03-05T03:14:09;150413.47;;;0.24;100.00
51287;BME280;37364;46.974;18.916;2023-03-05T03:16:40;150396.75;;;0.17;100.00
51287;BME280;37364;46.974;18.916;2023-03-05T03:19:10;150386.50;;;0.13;100.00
51287;BME280;37364;46.974;18.916;2023-03-05T03:21:43;150365.94;;;0.05;100.00
51287;BME280;37364;46.974;18.916;2023-03-05T03:24:15;150353.09;;;-0.01;100.00
51287;BME280;37364;46.974;18.916;2023-03-05T03:26:46;150330.00;;;-0.10;100.00
51287;BME280;37364;46.974;18.916;2023-03-05T03:29:16;150324.81;;;-0.12;100.00
51287;BME280;37364;46.974;18.916;2023-03-05T03:31:46;150322.28;;;-0.13;100.00
51287;BME280;37364;46.974;18.916;2023-03-05T03:34:16;150319.69;;;-0.14;100.00
51287;BME280;37364;46.974;18.916;2023-03-05T03:36:50;150315.88;;;-0.15;100.00
51287;BME280;37364;46.974;18.916;2023-03-05T03:39:21;150319.69;;;-0.14;100.00
51287;BME280;37364;46.974;18.916;2023-03-05T03:41:52;150319.69;;;-0.14;100.00
51287;BME280;37364;46.974;18.916;2023-03-05T03:44:22;150312.00;;;-0.17;100.00
51287;BME280;37364;46.974;18.916;2023-03-05T03:46:52;150297.88;;;-0.23;100.00
51287;BME280;37364;46.974;18.916;2023-03-05T03:49:24;150294.00;;;-0.24;100.00
51287;BME280;37364;46.974;18.916;2023-03-05T03:51:57;150305.59;;;-0.19;100.00
51287;BME280;37364;46.974;18.916;2023-03-05T03:54:28;150304.28;;;-0.20;100.00
51287;BME280;37364;46.974;18.916;2023-03-05T03:56:58;150356.94;;;0.01;100.00
51287;BME280;37364;46.974;18.916;2023-03-05T03:59:28;150365.94;;;0.05;100.00
51287;BME280;37364;46.974;18.916;2023-03-05T04:01:58;150354.41;;;0.00;100.00
51287;BME280;37364;46.974;18.916;2023-03-05T04:04:28;150360.81;;;0.03;100.00
51287;BME280;37364;46.974;18.916;2023-03-05T04:07:01;150371.09;;;0.07;100.00
51287;BME280;37364;46.974;18.916;2023-03-05T04:09:31;150368.50;;;0.06;100.00
51287;BME280;37364;46.974;18.916;2023-03-05T04:12:02;150369.81;;;0.06;100.00
51287;BME280;37364;46.974;18.916;2023-03-05T04:14:32;150372.34;;;0.07;100.00
51287;BME280;37364;46.974;18.916;2023-03-05T04:17:02;150367.22;;;0.05;100.00
51287;BME280;37364;46.974;18.916;2023-03-05T04:19:32;150373.63;;;0.08;100.00
51287;BME280;37364;46.974;18.916;2023-03-05T04:22:05;150385.22;;;0.12;100.00
51287;BME280;37364;46.974;18.916;2023-03-05T04:24:36;150407.03;;;0.21;100.00
51287;BME280;37364;46.974;18.916;2023-03-05T04:27:07;150430.16;;;0.30;100.00
51287;BME280;37364;46.974;18.916;2023-03-05T04:29:38;150444.31;;;0.36;100.00
51287;BME280;37364;46.974;18.916;2023-03-05T04:32:09;150440.44;;;0.34;100.00
51287;BME280;37364;46.974;18.916;2023-03-05T04:34:39;150437.91;;;0.33;100.00
51287;BME280;37364;46.974;18.916;2023-03-05T04:37:12;150437.91;;;0.33;100.00
51287;BME280;37364;46.974;18.916;2023-03-05T04:39:42;150443.03;;;0.35;100.00
51287;BME280;37364;46.974;18.916;2023-03-05T04:42:13;150435.31;;;0.32;100.00
51287;BME280;37364;46.974;18.916;2023-03-05T04:44:44;150431.44;;;0.31;100.00
51287;BME280;37364;46.974;18.916;2023-03-05T04:47:14;150430.16;;;0.30;100.00
51287;BME280;37364;46.974;18.916;2023-03-05T04:49:44;150435.31;;;0.32;100.00
51287;BME280;37364;46.974;18.916;2023-03-05T04:52:17;150428.91;;;0.30;100.00
51287;BME280;37364;46.974;18.916;2023-03-05T04:54:47;150437.91;;;0.33;100.00
51287;BME280;37364;46.974;18.916;2023-03-05T04:57:18;150437.91;;;0.33;100.00
51287;BME280;37364;46.974;18.916;2023-03-05T04:59:49;150443.03;;;0.35;100.00
51287;BME280;37364;46.974;18.916;2023-03-05T05:02:19;150455.84;;;0.41;100.00
51287;BME280;37364;46.974;18.916;2023-03-05T05:04:52;150463.56;;;0.44;100.00
51287;BME280;37364;46.974;18.916;2023-03-05T05:07:24;150489.25;;;0.54;100.00
51287;BME280;37364;46.974;18.916;2023-03-05T05:09:55;150489.25;;;0.54;100.00
51287;BME280;37364;46.974;18.916;2023-03-05T05:12:27;150491.84;;;0.55;100.00
51287;BME280;37364;46.974;18.916;2023-03-05T05:14:58;150488.00;;;0.53;100.00
51287;BME280;37364;46.974;18.916;2023-03-05T05:17:29;150497.00;;;0.57;100.00
51287;BME280;37364;46.974;18.916;2023-03-05T05:20:00;150489.25;;;0.54;100.00
51287;BME280;37364;46.974;18.916;2023-03-05T05:22:38;150486.66;;;0.53;100.00
51287;BME280;37364;46.974;18.916;2023-03-05T05:25:09;150486.66;;;0.53;100.00
51287;BME280;37364;46.974;18.916;2023-03-05T05:27:39;150484.13;;;0.52;100.00
51287;BME280;37364;46.974;18.916;2023-03-05T05:30:11;150489.25;;;0.54;100.00
51287;BME280;37364;46.974;18.916;2023-03-05T05:32:41;150490.53;;;0.54;100.00
51287;BME280;37364;46.974;18.916;2023-03-05T05:35:11;150490.53;;;0.54;100.00
51287;BME280;37364;46.974;18.916;2023-03-05T05:37:44;150499.53;;;0.58;100.00
51287;BME280;37364;46.974;18.916;2023-03-05T05:40:15;150505.94;;;0.61;100.00
51287;BME280;37364;46.974;18.916;2023-03-05T05:42:45;150511.09;;;0.63;100.00
51287;BME280;37364;46.974;18.916;2023-03-05T05:45:15;150520.09;;;0.66;100.00
51287;BME280;37364;46.974;18.916;2023-03-05T05:47:45;150513.69;;;0.64;100.00
51287;BME280;37364;46.974;18.916;2023-03-05T05:50:16;150527.81;;;0.69;100.00
51287;BME280;37364;46.974;18.916;2023-03-05T05:52:49;150526.53;;;0.69;100.00
51287;BME280;37364;46.974;18.916;2023-03-05T05:55:20;150534.22;;;0.72;100.00
51287;BME280;37364;46.974;18.916;2023-03-05T05:57:50;150543.22;;;0.75;100.00
51287;BME280;37364;46.974;18.916;2023-03-05T06:00:22;150561.25;;;0.83;100.00
51287;BME280;37364;46.974;18.916;2023-03-05T06:02:53;150584.34;;;0.92;100.00
51287;BME280;37364;46.974;18.916;2023-03-05T06:05:23;150602.34;;;0.99;100.00
51287;BME280;37364;46.974;18.916;2023-03-05T06:07:56;150610.09;;;1.02;100.00
51287;BME280;37364;46.974;18.916;2023-03-05T06:10:26;150638.31;;;1.13;100.00
51287;BME280;37364;46.974;18.916;2023-03-05T06:12:56;150635.78;;;1.12;100.00
51287;BME280;37364;46.974;18.916;2023-03-05T06:15:27;150656.34;;;1.21;100.00
51287;BME280;37364;46.974;18.916;2023-03-05T06:17:57;150658.94;;;1.22;100.00
51287;BME280;37364;46.974;18.916;2023-03-05T06:20:28;150673.03;;;1.27;100.00
51287;BME280;37364;46.974;18.916;2023-03-05T06:23:01;150684.63;;;1.32;100.00
51287;BME280;37364;46.974;18.916;2023-03-05T06:25:31;150688.50;;;1.33;100.00
51287;BME280;37364;46.974;18.916;2023-03-05T06:28:01;150691.06;;;1.34;100.00
51287;BME280;37364;46.974;18.916;2023-03-05T06:30:31;150710.34;;;1.42;100.00
51287;BME280;37364;46.974;18.916;2023-03-05T06:33:02;150718.06;;;1.45;100.00
51287;BME280;37364;46.974;18.916;2023-03-05T06:35:32;150725.75;;;1.48;100.00
51287;BME280;37364;46.974;18.916;2023-03-05T06:38:06;150728.34;;;1.49;100.00
51287;BME280;37364;46.974;18.916;2023-03-05T06:40:38;150729.63;;;1.50;100.00
51287;BME280;37364;46.974;18.916;2023-03-05T06:43:08;150741.19;;;1.54;100.00
51287;BME280;37364;46.974;18.916;2023-03-05T06:45:39;150757.94;;;1.61;100.00
51287;BME280;37364;46.974;18.916;2023-03-05T06:48:09;150763.06;;;1.63;100.00
51287;BME280;37364;46.974;18.916;2023-03-05T06:50:40;150766.94;;;1.65;100.00
51287;BME280;37364;46.974;18.916;2023-03-05T06:53:13;150761.75;;;1.63;100.00
51287;BME280;37364;46.974;18.916;2023-03-05T06:55:43;150777.22;;;1.69;100.00
51287;BME280;37364;46.974;18.916;2023-03-05T06:58:14;150802.94;;;1.79;100.00
51287;BME280;37364;46.974;18.916;2023-03-05T07:00:44;150813.22;;;1.83;100.00
51287;BME280;37364;46.974;18.916;2023-03-05T07:03:15;150817.09;;;1.85;100.00
51287;BME280;37364;46.974;18.916;2023-03-05T07:05:46;150836.41;;;1.92;100.00
51287;BME280;37364;46.974;18.916;2023-03-05T07:08:19;150849.22;;;1.97;100.00
51287;BME280;37364;46.974;18.916;2023-03-05T07:10:49;150874.94;;;2.08;100.00
51287;BME280;37364;46.974;18.916;2023-03-05T07:13:19;150905.84;;;2.20;100.00
51287;BME280;37364;46.974;18.916;2023-03-05T07:15:49;150901.97;;;2.18;100.00
51287;BME280;37364;46.974;18.916;2023-03-05T07:18:20;150903.25;;;2.19;100.00
51287;BME280;37364;46.974;18.916;2023-03-05T07:20:50;150921.28;;;2.26;100.00
51287;BME280;37364;46.974;18.916;2023-03-05T07:23:24;150928.97;;;2.29;100.00
51287;BME280;37364;46.974;18.916;2023-03-05T07:25:54;150950.88;;;2.38;100.00
51287;BME280;37364;46.974;18.916;2023-03-05T07:28:24;150958.63;;;2.41;100.00
51287;BME280;37364;46.974;18.916;2023-03-05T07:30:55;150970.19;;;2.46;100.00
51287;BME280;37364;46.974;18.916;2023-03-05T07:33:27;150971.47;;;2.46;100.00
51287;BME280;37364;46.974;18.916;2023-03-05T07:35:58;150977.88;;;2.49;100.00
51287;BME280;37364;46.974;18.916;2023-03-05T07:38:33;150989.50;;;2.53;100.00
51287;BME280;37364;46.974;18.916;2023-03-05T07:41:04;151001.06;;;2.58;100.00
51287;BME280;37364;46.974;18.916;2023-03-05T07:43:35;151002.34;;;2.58;100.00
51287;BME280;37364;46.974;18.916;2023-03-05T07:46:06;151010.06;;;2.62;100.00
51287;BME280;37364;46.974;18.916;2023-03-05T07:48:37;151007.47;;;2.61;100.00
51287;BME280;37364;46.974;18.916;2023-03-05T07:51:11;151012.66;;;2.63;100.00
51287;BME280;37364;46.974;18.916;2023-03-05T07:53:46;151022.97;;;2.67;100.00
51287;BME280;37364;46.974;18.916;2023-03-05T07:56:20;151031.94;;;2.70;100.00
51287;BME280;37364;46.974;18.916;2023-03-05T07:58:52;151047.41;;;2.76;100.00
51287;BME280;37364;46.974;18.916;2023-03-05T08:01:22;151053.84;;;2.79;100.00
51287;BME280;37364;46.974;18.916;2023-03-05T08:03:52;151060.25;;;2.82;100.00
51287;BME280;37364;46.974;18.916;2023-03-05T08:06:22;151060.25;;;2.82;100.00
51287;BME280;37364;46.974;18.916;2023-03-05T08:08:56;151061.53;;;2.82;100.00
51287;BME280;37364;46.974;18.916;2023-03-05T08:11:27;151061.53;;;2.82;100.00
51287;BME280;37364;46.974;18.916;2023-03-05T08:13:57;151078.31;;;2.89;100.00
51287;BME280;37364;46.974;18.916;2023-03-05T08:16:27;151065.41;;;2.84;100.00
51287;BME280;37364;46.974;18.916;2023-03-05T08:18:58;151073.16;;;2.87;100.00
51287;BME280;37364;46.974;18.916;2023-03-05T08:21:31;151074.44;;;2.87;100.00
51287;BME280;37364;46.974;18.916;2023-03-05T08:24:06;151089.88;;;2.93;100.00
51287;BME280;37364;46.974;18.916;2023-03-05T08:26:38;151097.63;;;2.96;100.00
51287;BME280;37364;46.974;18.916;2023-03-05T08:29:09;151106.63;;;3.00;100.00
51287;BME280;37364;46.974;18.916;2023-03-05T08:31:39;151119.47;;;3.05;100.00
51287;BME280;37364;46.974;18.916;2023-03-05T08:34:14;151123.34;;;3.07;100.00
51287;BME280;37364;46.974;18.916;2023-03-05T08:36:44;151142.66;;;3.14;100.00
51287;BME280;37364;46.974;18.916;2023-03-05T08:39:18;151178.72;;;3.29;100.00
51287;BME280;37364;46.974;18.916;2023-03-05T08:41:48;151213.47;;;3.43;100.00
51287;BME280;37364;46.974;18.916;2023-03-05T08:44:18;151221.22;;;3.46;100.00
51287;BME280;37364;46.974;18.916;2023-03-05T08:46:48;151237.94;;;3.52;100.00
51287;BME280;37364;46.974;18.916;2023-03-05T08:49:19;151218.63;;;3.45;100.00
51287;BME280;37364;46.974;18.916;2023-03-05T08:51:49;151263.75;;;3.63;100.00
51287;BME280;37364;46.974;18.916;2023-03-05T08:54:22;151281.75;;;3.70;100.00
51287;BME280;37364;46.974;18.916;2023-03-05T08:56:52;151279.19;;;3.69;100.00
51287;BME280;37364;46.974;18.916;2023-03-05T08:59:22;151323.00;;;3.86;100.00
51287;BME280;37364;46.974;18.916;2023-03-05T09:01:53;151316.53;;;3.84;100.00
51287;BME280;37364;46.974;18.916;2023-03-05T09:04:23;151342.31;;;3.94;100.00
51287;BME280;37364;46.974;18.916;2023-03-05T09:06:53;151366.75;;;4.04;100.00
51287;BME280;37364;46.974;18.916;2023-03-05T09:09:26;151384.81;;;4.11;100.00
51287;BME280;37364;46.974;18.916;2023-03-05T09:11:58;151397.72;;;4.16;100.00
51287;BME280;37364;46.974;18.916;2023-03-05T09:14:28;151355.19;;;3.99;100.00
51287;BME280;37364;46.974;18.916;2023-03-05T09:16:58;151366.75;;;4.04;100.00
51287;BME280;37364;46.974;18.916;2023-03-05T09:19:28;151365.47;;;4.03;100.00
51287;BME280;37364;46.974;18.916;2023-03-05T09:21:59;151384.81;;;4.11;100.00
51287;BME280;37364;46.974;18.916;2023-03-05T09:24:32;151436.38;;;4.31;100.00
51287;BME280;37364;46.974;18.916;2023-03-05T09:27:03;151419.59;;;4.25;100.00
51287;BME280;37364;46.974;18.916;2023-03-05T09:29:33;151445.34;;;4.35;100.00
51287;BME280;37364;46.974;18.916;2023-03-05T09:32:03;151420.88;;;4.25;100.00
51287;BME280;37364;46.974;18.916;2023-03-05T09:34:34;151446.69;;;4.35;100.00
51287;BME280;37364;46.974;18.916;2023-03-05T09:37:04;151433.78;;;4.30;100.00
51287;BME280;37364;46.974;18.916;2023-03-05T09:39:37;151400.25;;;4.17;100.00
51287;BME280;37364;46.974;18.916;2023-03-05T09:42:21;151449.25;;;4.36;100.00
51287;BME280;37364;46.974;18.916;2023-03-05T09:45:05;151436.38;;;4.31;100.00
51287;BME280;37364;46.974;18.916;2023-03-05T09:47:51;151467.31;;;4.44;100.00
51287;BME280;37364;46.974;18.916;2023-03-05T09:50:34;151499.50;;;4.56;100.00
51287;BME280;37364;46.974;18.916;2023-03-05T09:53:16;151527.88;;;4.68;100.00
51287;BME280;37364;46.974;18.916;2023-03-05T09:55:54;151498.22;;;4.56;100.00
51287;BME280;37364;46.974;18.916;2023-03-05T09:58:33;151480.22;;;4.49;100.00
51287;BME280;37364;46.974;18.916;2023-03-05T10:01:07;151527.88;;;4.68;100.00
51287;BME280;37364;46.974;18.916;2023-03-05T10:03:49;151504.66;;;4.59;100.00
51287;BME280;37364;46.974;18.916;2023-03-05T10:06:28;151495.66;;;4.55;100.00
51287;BME280;37364;46.974;18.916;2023-03-05T10:09:06;151432.50;;;4.30;100.00
51287;BME280;37364;46.974;18.916;2023-03-05T10:11:52;151464.69;;;4.43;100.00
51287;BME280;37364;46.974;18.916;2023-03-05T10:14:28;151515.00;;;4.63;100.00
51287;BME280;37364;46.974;18.916;2023-03-05T10:17:08;151569.16;;;4.84;100.00
51287;BME280;37364;46.974;18.916;2023-03-05T10:20:02;151589.78;;;4.92;100.00
51287;BME280;37364;46.974;18.916;2023-03-05T10:22:40;151691.59;;;5.33;100.00
51287;BME280;37364;46.974;18.916;2023-03-05T10:25:20;151632.28;;;5.09;100.00
51287;BME280;37364;46.974;18.916;2023-03-05T10:27:58;151716.13;;;5.43;100.00
51287;BME280;37364;46.974;18.916;2023-03-05T10:30:50;151784.50;;;5.70;100.00
51287;BME280;37364;46.974;18.916;2023-03-05T10:33:32;151687.78;;;5.31;100.00
51287;BME280;37364;46.974;18.916;2023-03-05T10:36:22;151654.22;;;5.18;100.00
51287;BME280;37364;46.974;18.916;2023-03-05T10:39:05;151703.25;;;5.38;100.00
51287;BME280;37364;46.974;18.916;2023-03-05T10:41:51;151776.78;;;5.67;100.00
51287;BME280;37364;46.974;18.916;2023-03-05T10:44:36;151851.66;;;5.97;100.00
51287;BME280;37364;46.974;18.916;2023-03-05T10:47:14;151781.94;;;5.69;100.00
51287;BME280;37364;46.974;18.916;2023-03-05T10:49:49;151794.81;;;5.74;100.00
51287;BME280;37364;46.974;18.916;2023-03-05T10:52:27;151799.97;;;5.76;100.00
51287;BME280;37364;46.974;18.916;2023-03-05T10:55:00;151917.44;;;6.23;100.00
51287;BME280;37364;46.974;18.916;2023-03-05T10:57:30;151842.56;;;5.93;98.94
51287;BME280;37364;46.974;18.916;2023-03-05T11:00:16;151820.66;;;5.84;100.00
51287;BME280;37364;46.974;18.916;2023-03-05T11:03:06;151900.69;;;6.16;100.00
51287;BME280;37364;46.974;18.916;2023-03-05T11:05:47;151970.38;;;6.44;100.00
51287;BME280;37364;46.974;18.916;2023-03-05T11:08:28;151922.59;;;6.25;98.76
51287;BME280;37364;46.974;18.916;2023-03-05T11:11:14;151854.22;;;5.98;94.63
51287;BME280;37364;46.974;18.916;2023-03-05T11:13:54;151894.25;;;6.13;96.32
51287;BME280;37364;46.974;18.916;2023-03-05T11:16:29;151878.72;;;6.07;99.23
51287;BME280;37364;46.974;18.916;2023-03-05T11:19:15;151911.00;;;6.20;96.51
51287;BME280;37364;46.974;18.916;2023-03-05T11:22:01;151940.69;;;6.32;93.88
51287;BME280;37364;46.974;18.916;2023-03-05T11:24:33;151921.34;;;6.24;94.66
51287;BME280;37364;46.974;18.916;2023-03-05T11:27:22;151996.19;;;6.54;90.85
51287;BME280;37364;46.974;18.916;2023-03-05T11:29:55;151948.47;;;6.35;91.06
51287;BME280;37364;46.974;18.916;2023-03-05T11:32:28;151861.97;;;6.01;91.13
51287;BME280;37364;46.974;18.916;2023-03-05T11:34:59;151843.84;;;5.93;91.90
51287;BME280;37364;46.974;18.916;2023-03-05T11:37:30;151852.94;;;5.97;96.61
51287;BME280;37364;46.974;18.916;2023-03-05T11:40:19;151890.38;;;6.12;94.70
51287;BME280;37364;46.974;18.916;2023-03-05T11:42:54;151874.88;;;6.06;94.48
51287;BME280;37364;46.974;18.916;2023-03-05T11:45:28;151881.34;;;6.08;96.27
51287;BME280;37364;46.974;18.916;2023-03-05T11:48:07;151836.13;;;5.90;95.16
51287;BME280;37364;46.974;18.916;2023-03-05T11:50:40;151838.69;;;5.91;93.17
51287;BME280;37364;46.974;18.916;2023-03-05T11:53:17;151871.00;;;6.04;94.41
51287;BME280;37364;46.974;18.916;2023-03-05T11:55:52;151851.66;;;5.97;94.42
51287;BME280;37364;46.974;18.916;2023-03-05T11:58:30;151830.97;;;5.88;93.20
51287;BME280;37364;46.974;18.916;2023-03-05T12:01:13;151833.53;;;5.89;98.61
51287;BME280;37364;46.974;18.916;2023-03-05T12:03:48;151854.22;;;5.98;96.10
51287;BME280;37364;46.974;18.916;2023-03-05T12:06:23;151789.66;;;5.72;93.39
51287;BME280;37364;46.974;18.916;2023-03-05T12:08:59;151869.72;;;6.04;93.51
51287;BME280;37364;46.974;18.916;2023-03-05T12:11:32;151881.34;;;6.08;92.57
51287;BME280;37364;46.974;18.916;2023-03-05T12:14:08;151916.16;;;6.22;91.51
51287;BME280;37364;46.974;18.916;2023-03-05T12:16:44;151923.94;;;6.25;89.71
51287;BME280;37364;46.974;18.916;2023-03-05T12:19:36;151974.25;;;6.45;91.23
51287;BME280;37364;46.974;18.916;2023-03-05T12:22:19;151916.16;;;6.22;88.30
51287;BME280;37364;46.974;18.916;2023-03-05T12:24:49;151841.28;;;5.92;87.21
51287;BME280;37364;46.974;18.916;2023-03-05T12:27:33;151833.53;;;5.89;90.00
51287;BME280;37364;46.974;18.916;2023-03-05T12:33:34;151788.38;;;5.71;90.51
51287;BME280;37364;46.974;18.916;2023-03-05T12:36:35;151825.81;;;5.86;91.24
51287;BME280;37364;46.974;18.916;2023-03-05T12:45:23;151847.78;;;5.95;90.58
51287;BME280;37364;46.974;18.916;2023-03-05T12:50:57;151815.50;;;5.82;90.77
51287;BME280;37364;46.974;18.916;2023-03-05T12:53:32;151792.25;;;5.73;91.26
51287;BME280;37364;46.974;18.916;2023-03-05T12:56:05;151805.13;;;5.78;89.57
51287;BME280;37364;46.974;18.916;2023-03-05T12:58:44;151796.13;;;5.74;89.08
51287;BME280;37364;46.974;18.916;2023-03-05T13:01:33;151774.19;;;5.66;89.42
51287;BME280;37364;46.974;18.916;2023-03-05T13:04:10;151785.81;;;5.70;88.60
51287;BME280;37364;46.974;18.916;2023-03-05T13:06:41;151792.25;;;5.73;88.04
51287;BME280;37364;46.974;18.916;2023-03-05T13:09:23;151818.03;;;5.83;88.22
51287;BME280;37364;46.974;18.916;2023-03-05T13:11:54;151886.50;;;6.10;88.16
51287;BME280;37364;46.974;18.916;2023-03-05T13:14:44;151900.69;;;6.16;86.15
51287;BME280;37364;46.974;18.916;2023-03-05T13:17:39;151945.84;;;6.34;87.09
51287;BME280;37364;46.974;18.916;2023-03-05T13:20:35;151949.72;;;6.36;85.49
51287;BME280;37364;46.974;18.916;2023-03-05T13:23:19;151945.84;;;6.34;82.87
51287;BME280;37364;46.974;18.916;2023-03-05T13:26:11;151953.63;;;6.37;84.15